Time;durP1;ratioP1;P1;durP2;ratioP2;P2;SDS_P1;SDS_P2;PMS_P1;PMS_P2;Temp;Humidity;BMP_temperature;BMP_pressure;BME280_temperature;BME280_humidity;BME280_pressure;Samples;Min_cycle;Max_cycle;Signal;HPM_P1;HPM_P2
2022/03/13 00:01:57;;;;;;;11.70;7.20;;;;;;;14.69;39.10;101476.53;4990160;28;113891;-79
2022/03/13 00:04:25;;;;;;;13.20;7.45;;;;;;;14.69;39.06;101479.22;4989663;28;113760;-79
2022/03/13 00:06:52;;;;;;;11.55;6.78;;;;;;;14.71;39.12;101485.31;5007331;28;124025;-79
2022/03/13 00:09:22;;;;;;;12.77;7.30;;;;;;;14.72;39.32;101481.72;4990561;28;123923;-79
2022/03/13 00:11:53;;;;;;;12.60;6.95;;;;;;;14.71;39.15;101474.66;4989523;28;113743;-79
2022/03/13 00:14:21;;;;;;;12.52;7.13;;;;;;;14.71;39.32;101474.66;4989579;28;113699;-79
2022/03/13 00:16:50;;;;;;;12.93;7.28;;;;;;;14.70;39.33;101473.81;4991577;28;123416;-80
2022/03/13 00:19:20;;;;;;;12.13;7.53;;;;;;;14.70;39.13;101473.81;5009968;28;123617;-79
2022/03/13 00:21:51;;;;;;;12.38;7.28;;;;;;;14.71;39.26;101461.31;4994429;28;114600;-78
2022/03/13 00:24:20;;;;;;;11.25;6.95;;;;;;;14.70;39.31;101472.94;5009096;28;113874;-79
2022/03/13 00:26:52;;;;;;;14.13;7.93;;;;;;;14.67;39.18;101465.09;4992460;28;124023;-79
2022/03/13 00:29:19;;;;;;;13.90;7.65;;;;;;;14.65;39.41;101459.00;4991234;28;122654;-79
2022/03/13 00:31:46;;;;;;;14.57;7.80;;;;;;;14.65;39.08;101464.31;4991765;28;114118;-79
2022/03/13 00:34:14;;;;;;;12.90;7.10;;;;;;;14.63;39.21;101450.22;4992403;28;113475;-79
2022/03/13 00:36:42;;;;;;;12.52;7.22;;;;;;;14.62;39.29;101448.47;5007479;28;124608;-79
2022/03/13 00:39:09;;;;;;;12.60;7.55;;;;;;;14.62;39.32;101459.16;5018771;28;125221;-79
2022/03/13 00:41:37;;;;;;;13.63;8.00;;;;;;;14.62;39.44;101443.16;5001024;28;114528;-80
2022/03/13 00:44:05;;;;;;;12.98;7.68;;;;;;;14.60;39.36;101444.09;5004983;28;114567;-79
2022/03/13 00:46:33;;;;;;;13.52;8.23;;;;;;;14.60;39.23;101441.44;5003501;28;122245;-79
2022/03/13 00:49:00;;;;;;;14.38;8.52;;;;;;;14.60;39.38;101446.78;5020242;28;123144;-80
2022/03/13 00:51:27;;;;;;;13.52;7.93;;;;;;;14.60;39.36;101435.25;5001275;28;114118;-80
2022/03/13 00:53:55;;;;;;;13.40;7.63;;;;;;;14.58;39.15;101435.31;4993741;28;113814;-79
2022/03/13 00:56:22;;;;;;;16.63;8.45;;;;;;;14.56;39.35;101431.84;4993332;28;123471;-79
2022/03/13 00:58:49;;;;;;;13.80;8.20;;;;;;;14.55;39.15;101424.78;4993672;28;122407;-79
2022/03/13 01:01:17;;;;;;;12.68;7.43;;;;;;;14.55;39.15;101414.13;4994072;28;113185;-78
2022/03/13 01:03:44;;;;;;;15.18;8.52;;;;;;;14.54;39.26;101412.41;4994206;28;113884;-78
2022/03/13 01:06:11;;;;;;;12.55;7.18;;;;;;;14.54;39.59;101415.06;4977145;28;123447;-78
2022/03/13 01:08:43;;;;;;;13.52;7.97;;;;;;;14.54;39.49;101420.41;5010592;28;123756;-78
2022/03/13 01:11:11;;;;;;;12.90;7.93;;;;;;;14.53;39.29;101418.69;4998803;28;114510;-79
2022/03/13 01:13:38;;;;;;;14.25;8.15;;;;;;;14.52;39.43;101416.97;4995176;28;113107;-79
2022/03/13 01:16:17;;;;;;;12.88;7.85;;;;;;;14.51;39.56;101412.56;4993306;28;123929;-79
2022/03/13 01:18:52;;;;;;;16.13;7.70;;;;;;;14.49;39.48;101417.13;5011850;27;123650;-78
2022/03/13 01:21:20;;;;;;;13.38;7.90;;;;;;;14.48;39.42;101415.38;4991672;28;114095;-79
2022/03/13 01:23:59;;;;;;;13.65;7.85;;;;;;;14.47;39.83;101408.34;4994254;28;114024;-79
2022/03/13 01:26:26;;;;;;;13.93;8.30;;;;;;;14.45;39.71;101410.22;4993292;28;123429;-78
2022/03/13 01:28:57;;;;;;;13.95;8.27;;;;;;;14.43;39.72;101401.44;4993049;28;123580;-79
2022/03/13 01:31:35;;;;;;;14.52;8.10;;;;;;;14.41;39.89;101403.34;4992260;28;114207;-78
2022/03/13 01:34:05;;;;;;;12.10;7.80;;;;;;;14.40;39.74;101393.59;4994273;28;113300;-79
2022/03/13 01:36:32;;;;;;;13.23;7.68;;;;;;;14.38;39.85;101387.50;4995696;28;123767;-79
2022/03/13 01:39:01;;;;;;;14.52;7.85;;;;;;;14.35;39.87;101379.66;4993837;28;122226;-79
2022/03/13 01:41:29;;;;;;;13.90;7.80;;;;;;;14.33;39.98;101376.22;4991571;28;116145;-79
2022/03/13 01:43:58;;;;;;;13.27;8.23;;;;;;;14.30;39.97;101379.06;4992532;28;114297;-79
2022/03/13 01:46:26;;;;;;;14.68;8.27;;;;;;;14.29;39.76;101372.00;4993737;28;123931;-78
2022/03/13 01:49:03;;;;;;;15.23;8.43;;;;;;;14.26;40.08;101372.13;4992054;28;123089;-78
2022/03/13 01:51:31;;;;;;;15.18;8.30;;;;;;;14.23;40.04;101367.84;4992617;28;114868;-79
2022/03/13 01:54:06;;;;;;;15.73;8.25;;;;;;;14.23;40.04;101372.31;4995648;28;113944;-78
2022/03/13 01:56:35;;;;;;;16.67;8.40;;;;;;;14.18;40.03;101365.44;4995451;28;123692;-77
2022/03/13 01:59:03;;;;;;;14.10;8.27;;;;;;;14.16;40.02;101372.59;4992490;28;123692;-78
2022/03/13 02:01:30;;;;;;;14.30;8.23;;;;;;;14.13;40.12;101367.47;4992646;28;114938;-79
2022/03/13 02:03:58;;;;;;;13.30;7.72;;;;;;;14.13;40.24;101370.13;4993269;28;113745;-78
2022/03/13 02:06:29;;;;;;;13.23;8.10;;;;;;;14.10;40.24;101370.28;4991538;28;123472;-78
2022/03/13 02:08:56;;;;;;;15.35;8.18;;;;;;;14.08;40.09;101369.50;4990967;28;123974;-78
2022/03/13 02:11:28;;;;;;;13.15;7.78;;;;;;;14.07;40.20;101367.78;4991836;28;114406;-79
2022/03/13 02:13:55;;;;;;;14.60;8.07;;;;;;;14.04;40.31;101365.25;4976332;28;112828;-79
2022/03/13 02:16:24;;;;;;;14.15;8.15;;;;;;;14.03;40.49;101363.53;4975693;28;122125;-79
2022/03/13 02:18:53;;;;;;;13.23;8.10;;;;;;;14.02;40.30;101356.50;4993086;28;123505;-79
2022/03/13 02:21:24;;;;;;;15.43;8.30;;;;;;;14.02;40.43;101356.50;4990967;28;114402;-80
2022/03/13 02:24:00;;;;;;;14.70;8.35;;;;;;;14.02;40.39;101351.16;4995488;28;114408;-79
2022/03/13 02:26:27;;;;;;;14.82;8.40;;;;;;;14.02;40.47;101343.19;4992869;28;124067;-79
2022/03/13 02:28:56;;;;;;;15.45;8.60;;;;;;;14.01;40.65;101344.09;4993646;28;122470;-79
2022/03/13 02:31:29;;;;;;;15.18;8.55;;;;;;;13.99;40.58;101346.00;4992304;28;114792;-79
2022/03/13 02:33:57;;;;;;;13.68;8.45;;;;;;;13.98;40.43;101338.97;4991055;28;114836;-79
2022/03/13 02:37:04;;;;;;;14.55;8.38;;;;;;;13.95;40.55;101347.09;4994648;28;122182;-79
2022/03/13 02:39:36;;;;;;;15.10;8.05;;;;;;;13.95;40.57;101339.09;4997546;28;123333;-79
2022/03/13 02:42:06;;;;;;;14.60;8.30;;;;;;;13.95;40.71;101347.09;4998607;28;114753;-79
2022/03/13 02:44:34;;;;;;;16.35;8.82;;;;;;;13.92;40.65;101341.91;4998999;28;114652;-79
2022/03/13 02:47:04;;;;;;;13.77;8.13;;;;;;;13.90;40.53;101343.78;4994363;28;123878;-79
2022/03/13 02:49:33;;;;;;;13.40;7.85;;;;;;;13.88;40.59;101340.34;4992492;28;124644;-79
2022/03/13 02:52:04;;;;;;;14.27;8.02;;;;;;;13.85;40.88;101335.19;4990979;28;113034;-79
2022/03/13 02:54:32;;;;;;;13.88;8.13;;;;;;;13.83;40.53;101327.28;4990507;28;113128;-79
2022/03/13 02:57:00;;;;;;;15.43;7.90;;;;;;;13.80;40.85;101312.31;5007097;28;124837;-80
2022/03/13 02:59:28;;;;;;;13.38;8.00;;;;;;;13.76;40.80;101334.72;4991511;28;124066;-79
2022/03/13 03:01:55;;;;;;;14.75;8.43;;;;;;;13.73;40.67;101341.97;4990435;28;114191;-78
2022/03/13 03:04:24;;;;;;;14.07;8.43;;;;;;;13.68;40.88;101339.56;4991080;28;112651;-79
2022/03/13 03:06:55;;;;;;;17.15;8.73;;;;;;;13.62;40.98;101334.56;4990559;28;123495;-79
2022/03/13 03:09:23;;;;;;;16.27;8.30;;;;;;;13.59;40.57;101334.69;4991766;28;124666;-79
2022/03/13 03:11:50;;;;;;;15.00;8.10;;;;;;;13.54;40.66;101331.41;4990262;28;114706;-80
2022/03/13 03:14:19;;;;;;;16.08;8.93;;;;;;;13.50;40.85;101330.69;4991475;28;113287;-80
2022/03/13 03:16:46;;;;;;;15.02;8.52;;;;;;;13.46;40.77;101333.59;4991298;28;123776;-79
2022/03/13 03:19:13;;;;;;;17.23;8.50;;;;;;;13.41;40.94;101332.03;4990354;28;123327;-79
2022/03/13 03:21:41;;;;;;;15.45;9.20;;;;;;;13.37;40.96;101325.13;4988893;28;114047;-79
2022/03/13 03:24:18;;;;;;;17.83;9.68;;;;;;;13.32;40.96;101332.47;4990528;28;114165;-79
2022/03/13 03:26:46;;;;;;;17.95;9.10;;;;;;;13.27;40.89;101329.13;4990428;28;122249;-78
2022/03/13 03:29:14;;;;;;;18.42;9.60;;;;;;;13.23;40.80;101335.53;4990774;28;122969;-79
2022/03/13 03:31:47;;;;;;;18.90;10.18;;;;;;;13.16;40.99;101331.44;4989356;28;112495;-79
2022/03/13 03:34:20;;;;;;;15.40;9.23;;;;;;;13.12;40.88;101329.88;4990194;28;113869;-78
2022/03/13 03:36:54;;;;;;;19.35;10.35;;;;;;;13.06;40.93;101336.34;4990332;28;123440;-77
2022/03/13 03:39:22;;;;;;;17.67;10.30;;;;;;;13.00;40.81;101326.84;4973879;28;124406;-78
2022/03/13 03:41:51;;;;;;;17.13;9.60;;;;;;;12.96;40.90;101330.59;4990950;28;114487;-78
2022/03/13 03:44:19;;;;;;;19.08;10.80;;;;;;;12.94;40.92;101332.47;4979589;28;114266;-79
2022/03/13 03:46:47;;;;;;;17.30;9.75;;;;;;;12.90;41.02;101341.50;4971837;28;123897;-78
2022/03/13 03:49:15;;;;;;;16.27;9.45;;;;;;;12.88;41.07;101330.09;4971819;28;122684;-78
2022/03/13 03:51:43;;;;;;;20.98;11.32;;;;;;;12.86;40.62;101339.94;4986400;28;114203;-78
2022/03/13 03:54:11;;;;;;;20.45;10.68;;;;;;;12.83;40.98;101335.63;4970593;28;114531;-78
2022/03/13 03:56:39;;;;;;;17.52;10.38;;;;;;;12.82;40.89;101333.03;4974495;28;123788;-79
2022/03/13 03:59:06;;;;;;;18.60;10.07;;;;;;;12.81;40.94;101336.66;4987353;28;123565;-79
2022/03/13 04:01:38;;;;;;;17.45;9.90;;;;;;;12.79;41.06;101338.47;4969502;28;114138;-79
2022/03/13 04:04:07;;;;;;;18.25;10.07;;;;;;;12.77;40.96;101335.03;4970781;28;114169;-79
2022/03/13 04:06:37;;;;;;;18.27;9.90;;;;;;;12.76;41.11;101339.50;4969748;28;123037;-79
2022/03/13 04:09:06;;;;;;;16.83;9.80;;;;;;;12.74;40.94;101335.19;4953748;28;123766;-79
2022/03/13 04:11:34;;;;;;;16.70;9.23;;;;;;;12.73;41.01;101328.16;4985921;28;115332;-79
2022/03/13 04:14:03;;;;;;;18.52;9.35;;;;;;;12.73;40.94;101328.16;4973108;28;113580;-79
2022/03/13 04:16:30;;;;;;;16.10;9.27;;;;;;;12.72;40.85;101326.44;4972158;28;123312;-79
2022/03/13 04:18:57;;;;;;;16.17;9.65;;;;;;;12.69;40.91;101326.56;4972788;28;123752;-79
2022/03/13 04:21:25;;;;;;;17.27;9.48;;;;;;;12.68;40.79;101314.19;4989070;28;112955;-79
2022/03/13 04:23:53;;;;;;;15.90;9.43;;;;;;;12.66;40.78;101323.13;4975059;28;113980;-79
2022/03/13 04:26:22;;;;;;;15.32;8.95;;;;;;;12.66;41.02;101320.47;4975209;28;124264;-78
2022/03/13 04:28:49;;;;;;;17.77;10.07;;;;;;;12.65;40.64;101310.75;4991702;28;123292;-79
2022/03/13 04:31:18;;;;;;;17.88;9.38;;;;;;;12.64;40.86;101319.69;5006288;28;113484;-78
2022/03/13 04:33:47;;;;;;;17.25;9.45;;;;;;;12.64;40.56;101319.69;4994785;28;114635;-79
2022/03/13 04:36:22;;;;;;;18.05;9.38;;;;;;;12.63;40.99;101317.94;4993376;28;124419;-78
2022/03/13 04:38:49;;;;;;;15.40;8.70;;;;;;;12.61;40.73;101325.13;4990963;28;124286;-78
2022/03/13 04:41:17;;;;;;;15.63;9.05;;;;;;;12.62;40.66;101321.53;4975831;28;113504;-79
2022/03/13 04:43:45;;;;;;;16.27;9.00;;;;;;;12.62;40.72;101321.53;4976444;28;114145;-79
2022/03/13 04:46:15;;;;;;;17.52;9.57;;;;;;;12.62;40.48;101310.91;4975010;28;124106;-78
2022/03/13 04:48:43;;;;;;;16.33;9.13;;;;;;;12.61;40.64;101314.50;4990429;28;123806;-78
2022/03/13 04:51:10;;;;;;;15.13;8.77;;;;;;;12.61;40.67;101314.50;4973232;28;114976;-79
2022/03/13 04:53:38;;;;;;;16.23;9.38;;;;;;;12.61;40.59;101314.50;4974366;28;113866;-78
2022/03/13 04:56:05;;;;;;;17.45;9.30;;;;;;;12.60;40.39;101307.47;4975445;28;123860;-79
2022/03/13 04:58:32;;;;;;;14.77;8.55;;;;;;;12.58;40.29;101309.34;4976366;28;122987;-79
2022/03/13 05:01:00;;;;;;;15.63;8.43;;;;;;;12.58;40.47;101314.66;4976251;28;114595;-79
2022/03/13 05:03:27;;;;;;;15.57;8.45;;;;;;;12.58;40.29;101309.34;4993582;28;114402;-79
2022/03/13 05:05:55;;;;;;;16.98;8.15;;;;;;;12.59;40.20;101304.88;4974471;28;123478;-79
2022/03/13 05:08:23;;;;;;;14.43;8.27;;;;;;;12.60;40.18;101311.91;4957856;28;122897;-79
2022/03/13 05:10:50;;;;;;;17.88;8.68;;;;;;;12.58;40.23;101306.69;4974013;28;114712;-79
2022/03/13 05:13:19;;;;;;;16.42;8.15;;;;;;;12.58;40.32;101309.34;4973248;28;112968;-79
2022/03/13 05:15:46;;;;;;;15.20;8.13;;;;;;;12.58;39.96;101304.03;4973023;28;124147;-79
2022/03/13 05:18:14;;;;;;;14.27;7.63;;;;;;;12.58;39.97;101314.66;4972923;28;122538;-79
2022/03/13 05:20:41;;;;;;;14.93;8.32;;;;;;;12.57;40.01;101310.25;4973308;28;115035;-79
2022/03/13 05:23:08;;;;;;;16.23;8.25;;;;;;;12.58;40.18;101319.97;4973722;28;114062;-79
2022/03/13 05:25:36;;;;;;;13.40;8.48;;;;;;;12.58;39.91;101314.66;4973691;28;123139;-78
2022/03/13 05:28:04;;;;;;;14.25;8.10;;;;;;;12.57;39.98;101320.88;4974110;28;123053;-78
2022/03/13 05:30:32;;;;;;;13.50;7.90;;;;;;;12.57;40.14;101314.72;4974332;28;113466;-78
2022/03/13 05:32:59;;;;;;;13.40;8.02;;;;;;;12.57;40.14;101318.22;4990935;28;113658;-78
2022/03/13 05:35:27;;;;;;;15.85;8.25;;;;;;;12.57;39.99;101323.53;4973492;28;123970;-77
2022/03/13 05:37:54;;;;;;;14.18;7.72;;;;;;;12.58;40.07;101319.97;4973606;28;123667;-79
2022/03/13 05:40:22;;;;;;;13.90;7.85;;;;;;;12.58;39.79;101319.09;4989525;28;113613;-78
2022/03/13 05:42:55;;;;;;;15.77;8.10;;;;;;;12.58;39.76;101317.31;4973740;28;112143;-79
2022/03/13 05:45:27;;;;;;;14.13;8.02;;;;;;;12.58;39.82;101325.28;4972410;28;123595;-78
2022/03/13 05:47:57;;;;;;;15.93;8.18;;;;;;;12.56;39.89;101327.13;4972027;28;123014;-78
2022/03/13 05:50:28;;;;;;;12.88;8.07;;;;;;;12.55;39.50;101330.72;4971868;28;114276;-78
2022/03/13 05:52:56;;;;;;;12.25;7.32;;;;;;;12.55;39.71;101333.38;4988866;28;115047;-78
2022/03/13 05:55:28;;;;;;;13.45;8.15;;;;;;;12.53;39.65;101335.25;4971630;28;123374;-79
2022/03/13 05:57:57;;;;;;;12.70;7.55;;;;;;;12.52;39.65;101336.16;4969005;28;123735;-77
2022/03/13 06:00:25;;;;;;;14.82;8.05;;;;;;;12.52;39.49;101338.81;4969614;28;113637;-78
2022/03/13 06:02:53;;;;;;;15.30;7.57;;;;;;;12.51;39.31;101331.81;4988343;28;113941;-78
2022/03/13 06:05:21;;;;;;;14.75;7.72;;;;;;;12.51;39.39;101331.81;4973003;28;124397;-78
2022/03/13 06:07:50;;;;;;;13.82;7.72;;;;;;;12.51;39.16;101334.47;4972565;28;124594;-78
2022/03/13 06:10:22;;;;;;;16.65;7.60;;;;;;;12.51;39.32;101339.78;4969743;28;114274;-78
2022/03/13 06:12:49;;;;;;;13.65;7.65;;;;;;;12.52;39.39;101343.28;4972632;28;113832;-80
2022/03/13 06:15:17;;;;;;;13.43;7.13;;;;;;;12.52;39.53;101336.16;4970977;28;124021;-79
2022/03/13 06:17:48;;;;;;;13.35;7.93;;;;;;;12.52;39.52;101341.47;4970854;28;124316;-79
2022/03/13 06:20:17;;;;;;;14.65;7.65;;;;;;;12.52;39.68;101352.09;4971723;28;113984;-79
2022/03/13 06:22:46;;;;;;;15.45;8.57;;;;;;;12.50;39.52;101343.34;4970586;28;113390;-80
2022/03/13 06:25:16;;;;;;;15.35;7.88;;;;;;;12.48;39.62;101337.25;4971149;28;123311;-79
2022/03/13 06:27:43;;;;;;;15.88;7.43;;;;;;;12.47;39.83;101332.88;4970879;28;123972;-79
2022/03/13 06:30:13;;;;;;;16.52;7.55;;;;;;;12.45;39.82;101329.41;4988133;28;112534;-79
2022/03/13 06:32:44;;;;;;;16.63;8.27;;;;;;;12.44;39.98;101338.31;4971602;28;113258;-79
2022/03/13 06:35:13;;;;;;;14.15;7.72;;;;;;;12.42;39.88;101327.75;4971768;28;124335;-78
2022/03/13 06:37:41;;;;;;;13.20;7.95;;;;;;;12.40;40.03;101321.66;4972139;28;124492;-79
2022/03/13 06:40:17;;;;;;;14.05;7.53;;;;;;;12.39;39.95;101325.22;4968051;28;115819;-79
2022/03/13 06:42:47;;;;;;;12.80;7.55;;;;;;;12.39;40.38;101324.38;4987465;28;114928;-79
2022/03/13 06:45:18;;;;;;;13.07;7.70;;;;;;;12.35;40.27;101322.78;4970949;28;124836;-79
2022/03/13 06:47:47;;;;;;;14.05;8.00;;;;;;;12.35;40.39;101322.78;4971480;28;124020;-79
2022/03/13 06:50:16;;;;;;;14.73;7.88;;;;;;;12.33;40.20;101322.00;4970242;28;113622;-79
2022/03/13 06:52:44;;;;;;;13.95;8.15;;;;;;;12.32;40.27;101330.88;4988209;28;114200;-78
2022/03/13 06:55:14;;;;;;;13.20;7.32;;;;;;;12.29;40.46;101328.38;4973576;28;124444;-78
2022/03/13 06:57:42;;;;;;;15.38;7.95;;;;;;;12.26;40.34;101330.25;4972391;28;123090;-81
2022/03/13 07:00:12;;;;;;;14.70;7.43;;;;;;;12.25;40.45;101339.13;4972469;28;113522;-78
2022/03/13 07:02:45;;;;;;;14.27;7.32;;;;;;;12.25;40.50;101347.09;4974229;28;114062;-78
2022/03/13 07:05:14;;;;;;;15.63;8.38;;;;;;;12.23;40.30;101346.31;4971623;28;124623;-79
2022/03/13 07:07:42;;;;;;;15.50;7.45;;;;;;;12.23;40.19;101338.34;4972294;28;123657;-78
2022/03/13 07:10:11;;;;;;;16.48;7.72;;;;;;;12.22;40.15;101333.97;4987470;28;114830;-78
2022/03/13 07:12:47;;;;;;;15.35;7.22;;;;;;;12.22;40.04;101343.72;4987732;28;113924;-77
2022/03/13 07:15:14;;;;;;;;;;;;;;;12.20;40.26;101341.13;4972276;28;124427;-79
2022/03/13 07:17:44;;;;;;;14.27;7.70;;;;;;;12.20;40.04;101346.44;4972861;28;122857;-78
2022/03/13 07:20:15;;;;;;;14.98;7.43;;;;;;;12.19;40.11;101344.72;4977085;28;112848;-78
2022/03/13 07:22:45;;;;;;;13.20;7.63;;;;;;;12.17;39.98;101335.97;4977230;28;113559;-78
2022/03/13 07:25:15;;;;;;;15.98;7.90;;;;;;;12.18;40.15;101340.31;4975367;28;124149;-77
2022/03/13 07:27:43;;;;;;;17.20;7.47;;;;;;;12.18;39.99;101337.66;4991680;28;123774;-78
2022/03/13 07:30:12;;;;;;;10.30;7.00;;;;;;;12.17;39.82;101335.09;4971306;28;114441;-79
2022/03/13 07:32:44;;;;;;;12.35;7.15;;;;;;;12.18;39.57;101337.66;4972242;28;113416;-79
2022/03/13 07:35:12;;;;;;;13.35;7.55;;;;;;;12.19;39.82;101339.41;4970415;28;123481;-78
2022/03/13 07:37:43;;;;;;;12.43;7.43;;;;;;;12.21;39.64;101342.00;4970281;28;122232;-78
2022/03/13 07:40:11;;;;;;;14.40;8.27;;;;;;;12.23;39.95;101341.00;4971651;28;115017;-79
2022/03/13 07:42:38;;;;;;;13.00;7.50;;;;;;;12.24;39.90;101332.09;4955857;28;113489;-78
2022/03/13 07:45:09;;;;;;;13.10;7.25;;;;;;;12.26;39.65;101335.56;4972859;28;125182;-79
2022/03/13 07:47:37;;;;;;;14.70;7.22;;;;;;;12.29;39.70;101331.03;4970272;28;123180;-79
2022/03/13 07:50:05;;;;;;;13.95;8.10;;;;;;;12.32;39.63;101334.44;4968954;28;113506;-80
2022/03/13 07:52:32;;;;;;;12.82;7.40;;;;;;;12.35;39.58;101322.78;4969303;28;113465;-79
2022/03/13 07:54:59;;;;;;;12.57;7.90;;;;;;;12.39;39.54;101324.38;4969653;28;122778;-78
2022/03/13 07:57:28;;;;;;;13.23;7.45;;;;;;;12.44;39.51;101333.00;4986830;28;124129;-79
2022/03/13 07:59:56;;;;;;;15.40;8.05;;;;;;;12.46;39.27;101331.13;4970957;28;114316;-79
2022/03/13 08:02:23;;;;;;;15.82;7.95;;;;;;;12.49;39.48;101330.13;4970541;28;113416;-79
2022/03/13 08:04:51;;;;;;;13.57;7.40;;;;;;;12.54;39.42;101323.66;4970330;28;123571;-80
2022/03/13 08:07:18;;;;;;;13.68;7.70;;;;;;;12.58;39.31;101330.59;4971359;28;124758;-78
2022/03/13 08:09:46;;;;;;;15.27;8.05;;;;;;;12.65;39.30;101329.34;4986719;28;113830;-78
2022/03/13 08:12:13;;;;;;;13.98;7.40;;;;;;;12.72;39.12;101329.94;4970412;28;114195;-78
2022/03/13 08:14:40;;;;;;;14.23;8.40;;;;;;;12.76;38.98;101328.00;4971376;28;123269;-78
2022/03/13 08:17:07;;;;;;;16.90;7.90;;;;;;;12.79;39.08;101323.41;4987240;28;123130;-78
2022/03/13 08:19:35;;;;;;;13.90;7.70;;;;;;;12.82;38.71;101322.41;4974265;28;114572;-78
2022/03/13 08:22:02;;;;;;;16.30;8.23;;;;;;;12.86;38.56;101323.97;4970650;28;114295;-78
2022/03/13 08:24:29;;;;;;;15.18;8.43;;;;;;;12.89;38.69;101329.16;4973391;28;124085;-79
2022/03/13 08:26:56;;;;;;;15.25;8.52;;;;;;;12.91;38.48;101327.28;4973403;28;124890;-79
2022/03/13 08:29:27;;;;;;;14.48;7.70;;;;;;;12.94;38.80;101327.16;4986063;28;114694;-79
2022/03/13 08:31:54;;;;;;;14.57;8.05;;;;;;;12.95;38.42;101318.22;4971182;28;113198;-79
2022/03/13 08:34:23;;;;;;;15.88;7.57;;;;;;;12.99;38.42;101324.28;4973442;28;124585;-78
2022/03/13 08:36:51;;;;;;;11.10;7.03;;;;;;;13.00;38.56;101326.84;4972791;28;123107;-79
2022/03/13 08:39:18;;;;;;;13.00;7.70;;;;;;;13.03;38.31;101321.41;4974230;28;113544;-78
2022/03/13 08:41:45;;;;;;;13.60;7.75;;;;;;;13.05;38.44;101319.53;4972564;28;113856;-79
2022/03/13 08:44:13;;;;;;;13.20;7.50;;;;;;;13.09;38.37;101324.69;4971859;28;123675;-78
2022/03/13 08:46:40;;;;;;;14.57;7.20;;;;;;;13.11;38.14;101328.13;4978666;28;124031;-78
2022/03/13 08:49:09;;;;;;;15.40;7.57;;;;;;;13.13;38.18;101316.50;4977169;28;113671;-79
2022/03/13 08:51:36;;;;;;;12.45;7.10;;;;;;;13.16;38.33;101320.81;4991855;28;114142;-78
2022/03/13 08:54:03;;;;;;;17.08;8.15;;;;;;;13.18;38.30;101318.94;4976677;28;123160;-78
2022/03/13 08:56:31;;;;;;;12.52;7.60;;;;;;;13.23;38.16;101311.59;4975333;28;124061;-79
2022/03/13 08:58:58;;;;;;;13.40;7.63;;;;;;;13.26;38.06;101311.47;4979040;28;113496;-79
2022/03/13 09:01:25;;;;;;;13.50;7.35;;;;;;;13.30;38.02;101313.06;4992401;28;112910;-79
2022/03/13 09:03:54;;;;;;;12.60;7.40;;;;;;;13.35;37.73;101311.00;4993265;28;123297;-78
2022/03/13 09:06:23;;;;;;;14.20;7.95;;;;;;;13.40;37.89;101309.00;4999164;28;123292;-78
2022/03/13 09:08:51;;;;;;;12.32;7.25;;;;;;;13.49;37.79;101312.16;4983384;28;114023;-79
2022/03/13 09:11:18;;;;;;;12.70;7.75;;;;;;;13.62;37.62;101315.94;4985653;28;115261;-79
2022/03/13 09:13:46;;;;;;;12.50;7.18;;;;;;;13.72;37.80;101316.31;4981742;28;123819;-78
2022/03/13 09:16:13;;;;;;;13.20;7.13;;;;;;;13.83;37.41;101309.50;4981807;28;124301;-79
2022/03/13 09:18:41;;;;;;;14.02;7.78;;;;;;;13.96;37.44;101311.53;4979744;28;113138;-79
2022/03/13 09:21:08;;;;;;;14.02;7.70;;;;;;;14.12;37.64;101301.78;4977685;28;114576;-79
2022/03/13 09:23:36;;;;;;;14.25;7.38;;;;;;;14.30;37.50;101299.13;4973551;28;123867;-78
2022/03/13 09:26:03;;;;;;;13.60;7.75;;;;;;;14.43;37.36;101308.19;4976975;28;121785;-79
2022/03/13 09:28:31;;;;;;;11.32;7.35;;;;;;;14.58;37.03;101307.38;4991055;28;114653;-79
2022/03/13 09:30:59;;;;;;;12.48;7.18;;;;;;;14.76;36.84;101307.31;4973651;28;111813;-79
2022/03/13 09:33:27;;;;;;;13.23;6.93;;;;;;;14.94;36.92;101300.94;4972464;28;125221;-79
2022/03/13 09:35:54;;;;;;;12.82;7.47;;;;;;;15.14;36.70;101301.63;4973383;28;122155;-80
2022/03/13 09:38:24;;;;;;;13.98;7.30;;;;;;;15.32;36.61;101295.22;4989771;28;114414;-80
2022/03/13 09:40:51;;;;;;;12.52;7.43;;;;;;;15.47;36.33;101295.31;4974058;28;113874;-80
2022/03/13 09:43:19;;;;;;;13.82;7.40;;;;;;;15.61;36.17;101290.00;4974162;28;123322;-80
2022/03/13 09:45:46;;;;;;;11.90;7.43;;;;;;;15.70;35.84;101294.78;4991977;28;124365;-80
2022/03/13 09:48:16;;;;;;;14.68;7.70;;;;;;;15.76;35.67;101289.16;4990096;28;112457;-80
2022/03/13 09:50:44;;;;;;;12.32;7.13;;;;;;;15.84;35.66;101285.13;4973400;28;112282;-80
2022/03/13 09:53:12;;;;;;;12.85;7.40;;;;;;;15.90;35.44;101282.13;4973060;28;123399;-80
2022/03/13 09:55:39;;;;;;;13.25;7.55;;;;;;;15.94;35.51;101280.97;4973125;28;124417;-80
2022/03/13 09:58:08;;;;;;;15.35;7.97;;;;;;;15.98;35.27;101287.84;4973059;28;114667;-79
2022/03/13 10:00:36;;;;;;;13.23;7.32;;;;;;;16.02;35.12;101292.03;4971948;28;114933;-78
2022/03/13 10:03:08;;;;;;;14.52;7.53;;;;;;;16.10;35.11;101291.56;4988886;28;123998;-78
2022/03/13 10:05:46;;;;;;;12.85;7.70;;;;;;;16.20;35.05;101289.19;4988112;28;123876;-78
2022/03/13 10:08:16;;;;;;;12.63;7.72;;;;;;;16.32;35.15;101293.78;4971770;28;113752;-78
2022/03/13 10:10:45;;;;;;;15.68;8.15;;;;;;;16.44;34.73;101284.13;4973143;28;113643;-79
2022/03/13 10:13:17;;;;;;;12.43;7.85;;;;;;;16.57;35.00;101289.56;4989936;28;122852;-78
2022/03/13 10:15:49;;;;;;;14.07;8.20;;;;;;;16.69;34.81;101295.00;4975495;28;123629;-79
2022/03/13 10:18:20;;;;;;;13.70;8.07;;;;;;;16.83;35.08;101290.63;4974520;28;115205;-79
2022/03/13 10:20:49;;;;;;;11.75;7.72;;;;;;;17.00;34.95;101297.56;4971762;28;113541;-79
2022/03/13 10:23:19;;;;;;;13.50;7.97;;;;;;;17.11;34.83;101279.84;4973800;28;123099;-79
2022/03/13 10:25:51;;;;;;;13.45;7.72;;;;;;;17.24;34.63;101290.59;4973050;28;122920;-79
2022/03/13 10:28:23;;;;;;;12.88;8.13;;;;;;;17.38;34.71;101281.66;4973124;28;113670;-79
2022/03/13 10:30:59;;;;;;;13.57;8.20;;;;;;;17.48;34.57;101276.56;4989306;28;113957;-78
2022/03/13 10:33:46;;;;;;;;;;;;;;;17.59;35.14;101268.63;4958985;28;122580;-79
2022/03/13 10:36:18;;;;;;;14.30;7.93;;;;;;;17.73;34.83;101274.88;4973626;28;123661;-78
2022/03/13 10:38:46;;;;;;;13.43;8.10;;;;;;;17.80;34.53;101260.97;4986925;28;114682;-79
2022/03/13 10:41:14;;;;;;;12.68;7.80;;;;;;;17.86;34.60;101265.06;4972623;28;112295;-79
2022/03/13 10:43:51;;;;;;;15.02;8.35;;;;;;;17.94;34.53;101270.75;4969520;28;124015;-80
2022/03/13 10:46:26;;;;;;;14.20;8.70;;;;;;;18.07;34.58;101265.41;4988357;28;124430;-79
2022/03/13 10:48:54;;;;;;;;;;;;;;;18.21;34.96;101253.69;4988751;28;115079;-78
2022/03/13 10:51:39;;;;;;;13.63;7.57;;;;;;;18.31;34.51;101259.25;4972835;28;113356;-79
2022/03/13 10:54:07;;;;;;;14.82;8.57;;;;;;;18.37;34.58;101265.06;4954220;28;123107;-79
2022/03/13 10:56:34;;;;;;;12.00;7.28;;;;;;;18.45;34.46;101262.69;4988465;28;122672;-80
2022/03/13 10:59:17;;;;;;;13.85;7.85;;;;;;;18.52;34.12;101254.22;4973267;28;114795;-79
2022/03/13 11:02:16;;;;;;;13.30;7.72;;;;;;;18.61;34.10;101256.19;4972632;28;114237;-80
2022/03/13 11:04:51;;;;;;;12.10;7.72;;;;;;;18.71;34.34;101249.22;4972078;28;123575;-80
2022/03/13 11:07:20;;;;;;;10.38;6.57;;;;;;;18.86;34.33;101239.22;4972610;28;124265;-80
2022/03/13 11:09:48;;;;;;;12.73;7.35;;;;;;;19.03;34.65;101235.28;4986780;28;113980;-80
2022/03/13 11:12:20;;;;;;;11.40;7.10;;;;;;;19.18;34.10;101239.50;4972753;28;113869;-80
2022/03/13 11:14:49;;;;;;;13.30;7.05;;;;;;;19.29;33.96;101235.13;4967208;28;123693;-80
2022/03/13 11:17:19;;;;;;;9.80;5.93;;;;;;;19.42;33.98;101230.53;4987395;28;122833;-80
2022/03/13 11:19:49;;;;;;;10.77;6.70;;;;;;;19.50;33.48;101230.84;4987356;28;113240;-80